MRN weather

Public forecast

Using degrees Fahrenheit for public forecast. Weather courtesy of forecast.io.

Current aviation weather report (METAR) for Foothills Regional Airport

Retrieved 2020/08/15 07:35 UTC (0 seconds ago):

KMRN 150735Z AUTO 00000KT 2 1/2SM +RA SCT001 SCT012 OVC018 18/17 A2998 RMK AO2 VIS 1 3/4V4 P0042 T01750168

Closest aviation forecast (TAF) to Foothills Regional Airport

Closest forecast is Hickory Regional Airport, 11.8 nm (21.9 km) ESE. Retrieved 2020/08/15 06:42 UTC (52 minutes ago):

TAF KHKY 150539Z 1506/1606 00000KT 4SM -SHRA BR VCTS OVC004CB TEMPO 1506/1508 3/4SM TSRA BR SCT004CB OVC010 FM150900 00000KT 3/4SM BR VCSH OVC003 FM151500 00000KT P6SM OVC007 PROB30 1515/1518 4SM TSRA BR OVC004CB FM151800 14003KT P6SM -SHRA VCTS BKN035CB FM160100 VRB02KT 6SM -SHRA BR OVC018 PROB30 1601/1604 2SM TSRA BR OVC008CB FM160400 04003KT 4SM BR BKN006